Time;durP1;ratioP1;P1;durP2;ratioP2;P2;SDS_P1;SDS_P2;PMS_P1;PMS_P2;Temp;Humidity;BMP_temperature;BMP_pressure;BME280_temperature;BME280_humidity;BME280_pressure;Samples;Min_cycle;Max_cycle;Signal;HPM_P1;HPM_P2
2023/01/04 00:02:12;;;;;;;9.23;5.93;;;;;;;3.64;87.60;102081.94;7394128;19;20018;-68
2023/01/04 00:04:40;;;;;;;7.25;5.88;;;;;;;3.63;87.61;102076.69;7393718;19;20018;-68
2023/01/04 00:07:09;;;;;;;6.35;5.50;;;;;;;3.57;87.73;102060.09;7395539;19;20066;-73
2023/01/04 00:09:37;;;;;;;8.38;6.13;;;;;;;3.59;87.42;102065.38;7395570;19;20081;-76
2023/01/04 00:12:06;;;;;;;8.48;6.10;;;;;;;3.56;87.59;102054.88;7395069;19;20627;-71
2023/01/04 00:14:35;;;;;;;8.13;6.40;;;;;;;3.54;87.72;102061.75;7393424;19;20478;-72
2023/01/04 00:17:03;;;;;;;7.82;6.18;;;;;;;3.52;87.50;102053.03;7394876;19;20028;-71
2023/01/04 00:19:34;;;;;;;9.38;6.10;;;;;;;3.50;87.77;102055.59;7393218;19;20024;-71
2023/01/04 00:22:03;;;;;;;8.73;7.70;;;;;;;3.49;87.59;102055.53;7394806;19;20429;-71
2023/01/04 00:24:31;;;;;;;8.60;6.40;;;;;;;3.47;87.70;102044.25;7393407;19;20088;-72
2023/01/04 00:27:00;;;;;;;8.35;6.15;;;;;;;3.44;87.73;102039.84;7394966;19;20078;-71
2023/01/04 00:29:28;;;;;;;9.07;6.82;;;;;;;3.42;87.76;102032.03;7398068;19;20081;-71
2023/01/04 00:31:57;;;;;;;10.23;7.55;;;;;;;3.40;87.70;102027.63;7402535;19;20077;-72
2023/01/04 00:34:25;;;;;;;10.45;6.43;;;;;;;3.38;87.96;102024.09;7400051;19;20018;-71
2023/01/04 00:36:56;;;;;;;8.07;6.35;;;;;;;3.36;87.73;102011.09;7402479;19;20014;-71
2023/01/04 00:39:25;;;;;;;7.75;6.60;;;;;;;3.34;87.93;102007.56;7400602;19;20039;-71
2023/01/04 00:42:03;;;;;;;8.60;6.65;;;;;;;3.33;87.79;102003.22;7401768;19;20514;-71
2023/01/04 00:44:33;;;;;;;8.18;5.97;;;;;;;3.30;87.87;101984.09;7399731;19;20014;-71
2023/01/04 00:47:02;;;;;;;7.68;5.97;;;;;;;3.29;88.04;101990.13;7402123;19;20010;-71
2023/01/04 00:49:32;;;;;;;6.45;5.80;;;;;;;3.27;88.14;101984.88;7401524;19;20478;-72
2023/01/04 00:52:03;;;;;;;8.98;6.80;;;;;;;3.24;88.09;101983.06;7401576;19;20418;-72
2023/01/04 00:54:32;;;;;;;9.50;7.05;;;;;;;3.23;87.98;101977.84;7399212;19;20424;-72
2023/01/04 00:57:01;;;;;;;9.65;6.75;;;;;;;3.20;87.96;101976.06;7401323;19;20074;-72
2023/01/04 00:59:29;;;;;;;9.48;6.85;;;;;;;3.20;88.00;101964.81;7399653;19;20018;-72
2023/01/04 01:01:58;;;;;;;10.07;6.82;;;;;;;3.16;88.14;101956.06;7401780;19;20015;-71
2023/01/04 01:04:27;;;;;;;9.07;6.60;;;;;;;3.18;88.08;101962.16;7399773;19;20022;-71
2023/01/04 01:06:55;;;;;;;7.70;6.70;;;;;;;3.17;88.14;101960.41;7406565;19;20031;-72
2023/01/04 01:09:26;;;;;;;7.10;6.15;;;;;;;3.16;87.97;101958.66;7407645;19;20015;-72
2023/01/04 01:11:55;;;;;;;10.40;7.85;;;;;;;3.15;88.02;101950.84;7401175;19;20086;-71
2023/01/04 01:14:27;;;;;;;8.80;6.65;;;;;;;3.14;88.30;101954.25;7398706;19;20086;-71
2023/01/04 01:16:55;;;;;;;9.35;7.35;;;;;;;3.12;88.32;101940.38;7401217;19;20431;-71
2023/01/04 01:19:24;;;;;;;9.18;7.32;;;;;;;3.09;88.14;101936.84;7397393;19;20007;-71
2023/01/04 01:21:52;;;;;;;9.07;6.47;;;;;;;3.08;88.36;101940.28;7401045;19;20031;-71
2023/01/04 01:24:22;;;;;;;8.27;6.25;;;;;;;3.07;88.43;101948.91;7398419;19;20518;-70
2023/01/04 01:26:53;;;;;;;8.82;6.47;;;;;;;3.05;88.31;101947.97;7400882;19;20019;-71
2023/01/04 01:29:22;;;;;;;9.20;6.30;;;;;;;3.04;88.54;101963.47;7400421;19;20410;-71
2023/01/04 01:31:50;;;;;;;8.18;6.60;;;;;;;3.02;88.57;101957.38;7400226;19;20423;-71
2023/01/04 01:34:19;;;;;;;10.18;7.88;;;;;;;3.01;88.64;101979.84;7398682;19;20082;-70
2023/01/04 01:36:47;;;;;;;10.55;6.55;;;;;;;2.96;88.81;101963.25;7400139;19;20081;-71
2023/01/04 01:39:16;;;;;;;8.55;6.70;;;;;;;2.97;88.89;101954.66;7399144;19;20078;-71
2023/01/04 01:41:44;;;;;;;8.70;7.32;;;;;;;2.98;89.04;101958.97;7397463;19;20031;-70
2023/01/04 01:44:43;;;;;;;9.75;7.10;;;;;;;2.96;89.14;101950.31;7397965;19;20031;-71
2023/01/04 01:47:19;;;;;;;9.85;7.53;;;;;;;2.96;88.74;101945.13;7399737;19;20031;-71
2023/01/04 01:49:51;;;;;;;9.40;6.90;;;;;;;2.98;89.13;101942.56;7400103;19;20070;-70
2023/01/04 01:52:24;;;;;;;11.95;7.72;;;;;;;2.99;89.17;101947.78;7397304;19;20562;-69
2023/01/04 01:54:58;;;;;;;8.40;6.95;;;;;;;2.98;89.04;101937.38;7397378;19;20545;-71
2023/01/04 01:57:30;;;;;;;9.93;6.85;;;;;;;3.02;89.07;101936.63;7400827;19;20482;-71
2023/01/04 02:00:03;;;;;;;9.38;7.30;;;;;;;3.03;89.17;101925.41;7397630;19;20070;-71
2023/01/04 02:02:34;;;;;;;10.25;7.63;;;;;;;3.03;89.05;101921.13;7399962;19;20459;-71
2023/01/04 02:05:04;;;;;;;8.57;6.90;;;;;;;3.05;89.25;101913.38;7399980;19;20082;-71
2023/01/04 02:07:33;;;;;;;11.93;7.40;;;;;;;3.05;89.09;101911.66;7399431;19;20031;-71
2023/01/04 02:10:02;;;;;;;9.10;7.25;;;;;;;3.07;89.07;101903.91;7399366;19;20036;-72
2023/01/04 02:12:33;;;;;;;8.90;6.85;;;;;;;3.07;89.28;101898.72;7398980;19;20557;-70
2023/01/04 02:15:02;;;;;;;7.03;6.32;;;;;;;3.09;89.29;101890.16;7399708;19;20078;-69
2023/01/04 02:17:40;;;;;;;10.55;8.07;;;;;;;3.13;89.50;101885.06;7398736;19;20514;-68
2023/01/04 02:20:37;;;;;;;9.10;7.40;;;;;;;3.16;89.48;101880.84;7396629;19;20085;-69
2023/01/04 02:23:44;;;;;;;11.50;7.68;;;;;;;3.18;89.54;101867.91;7395607;19;20092;-70
2023/01/04 02:26:41;;;;;;;9.25;7.25;;;;;;;3.20;89.15;101859.34;7396201;19;20022;-69
2023/01/04 02:29:43;;;;;;;10.95;7.75;;;;;;;3.23;89.32;101856.81;7399233;19;20019;-69
2023/01/04 02:32:25;;;;;;;8.98;6.80;;;;;;;3.26;89.70;101848.22;7397286;19;20031;-70
2023/01/04 02:35:01;;;;;;;7.63;6.53;;;;;;;3.29;89.52;101835.38;7395998;19;20510;-70
2023/01/04 02:37:39;;;;;;;8.50;6.53;;;;;;;3.32;89.34;101837.16;7398777;19;20038;-69
2023/01/04 02:40:15;;;;;;;9.30;6.50;;;;;;;3.35;89.40;101829.44;7397237;19;20078;-70
2023/01/04 02:45:38;;;;;;;10.32;7.00;;;;;;;3.40;89.59;101812.31;7398400;19;20055;-69
2023/01/04 02:51:02;;;;;;;10.82;6.93;;;;;;;3.46;89.50;101807.25;7398246;19;20117;-69
2023/01/04 02:53:36;;;;;;;9.55;6.30;;;;;;;3.51;89.49;101795.25;7396112;19;20105;-70
2023/01/04 02:56:15;;;;;;;8.50;6.72;;;;;;;3.54;89.26;101799.66;7397585;19;20510;-69
2023/01/04 02:59:05;;;;;;;8.48;6.68;;;;;;;3.58;89.06;101798.91;7397655;19;20082;-69
2023/01/04 03:07:29;;;;;;;7.95;6.07;;;;;;;3.63;88.96;101783.41;7397917;19;20014;-69
2023/01/04 03:10:07;;;;;;;9.50;6.80;;;;;;;3.64;88.78;101775.69;7397572;19;20035;-69
2023/01/04 03:12:40;;;;;;;8.93;6.55;;;;;;;3.64;88.56;101762.72;7398120;19;20019;-71
2023/01/04 03:15:14;;;;;;;9.60;6.80;;;;;;;3.65;88.73;101758.38;7396903;19;20018;-71
2023/01/04 03:17:47;;;;;;;7.70;6.72;;;;;;;3.66;88.53;101753.22;7396065;19;20471;-70
2023/01/04 03:20:21;;;;;;;9.73;6.78;;;;;;;3.63;88.62;101741.88;7395072;19;20014;-69
2023/01/04 03:36:52;;;;;;;9.68;6.70;;;;;;;3.80;89.30;101704.22;7396592;19;20015;-67
2023/01/04 03:50:46;;;;;;;12.75;9.40;;;;;;;3.86;88.34;101674.94;7396256;19;20010;-69
2023/01/04 03:53:17;;;;;;;16.13;10.05;;;;;;;3.89;88.28;101682.75;7395695;19;20022;-70
2023/01/04 03:55:47;;;;;;;10.18;8.15;;;;;;;3.89;88.14;101673.28;7395806;19;20064;-69
2023/01/04 03:58:16;;;;;;;14.73;7.72;;;;;;;3.90;88.18;101675.03;7395855;19;20462;-69
2023/01/04 04:00:52;;;;;;;8.77;6.15;;;;;;;3.91;88.01;101668.09;7394308;19;20018;-70
2023/01/04 04:03:20;;;;;;;7.13;6.13;;;;;;;3.91;88.02;101665.50;7393407;19;20044;-70
2023/01/04 04:08:32;;;;;;;9.77;5.82;;;;;;;3.95;88.06;101649.13;7395599;19;20057;-70
2023/01/04 04:11:29;;;;;;;8.57;5.53;;;;;;;3.96;87.80;101648.31;7395291;19;20424;-70
2023/01/04 04:13:52;;;;;;;7.82;5.43;;;;;;;3.98;87.76;101645.72;7393679;19;20010;-70
2023/01/04 04:16:20;;;;;;;8.30;6.18;;;;;;;3.97;87.84;101638.78;7395129;19;20027;-70
2023/01/04 04:18:49;;;;;;;9.85;5.55;;;;;;;3.99;87.89;101637.09;7394762;19;20423;-69
2023/01/04 04:21:18;;;;;;;7.97;6.13;;;;;;;3.98;87.86;101636.22;7394897;19;20011;-70
2023/01/04 04:23:49;;;;;;;9.15;6.22;;;;;;;3.97;87.91;101626.69;7393773;19;20070;-69
2023/01/04 04:26:18;;;;;;;10.15;6.25;;;;;;;4.00;87.61;101628.47;7395469;19;20434;-70
2023/01/04 04:28:47;;;;;;;9.18;6.25;;;;;;;4.00;87.71;101626.72;7392745;19;20015;-70
2023/01/04 04:31:15;;;;;;;8.02;6.32;;;;;;;4.01;87.60;101612.91;7395030;19;20078;-69
2023/01/04 04:33:44;;;;;;;9.32;5.78;;;;;;;4.01;87.66;101604.25;7393347;19;20459;-71
2023/01/04 04:36:13;;;;;;;9.02;5.88;;;;;;;4.01;88.04;101610.31;7394377;19;20015;-70
2023/01/04 04:38:41;;;;;;;6.50;5.68;;;;;;;4.03;87.75;101603.44;7394690;19;20033;-69
2023/01/04 04:43:56;;;;;;;8.80;5.85;;;;;;;4.04;87.47;101594.81;7393327;19;20007;-69
2023/01/04 04:46:24;;;;;;;9.57;5.90;;;;;;;4.05;87.47;101591.34;7394140;19;20014;-69
2023/01/04 04:48:53;;;;;;;9.32;5.82;;;;;;;4.07;87.56;101581.88;7393535;19;20032;-69
2023/01/04 04:51:21;;;;;;;9.90;6.00;;;;;;;4.10;87.35;101590.56;7393870;19;20074;-70
2023/01/04 04:53:50;;;;;;;7.18;5.38;;;;;;;4.11;87.52;101568.94;7392879;19;20070;-68
2023/01/04 04:56:21;;;;;;;9.38;6.00;;;;;;;4.11;87.09;101563.72;7391762;19;20082;-70
2023/01/04 04:58:50;;;;;;;11.05;5.85;;;;;;;4.14;87.36;101564.66;7393896;19;20364;-69
2023/01/04 05:01:19;;;;;;;8.40;5.50;;;;;;;4.16;87.17;101549.13;7391497;19;20082;-71
2023/01/04 05:03:48;;;;;;;9.70;5.30;;;;;;;4.18;87.13;101542.22;7391244;19;20531;-69
2023/01/04 05:06:16;;;;;;;7.10;5.00;;;;;;;4.19;87.06;101543.97;7393718;19;20026;-69
2023/01/04 05:08:45;;;;;;;7.93;5.38;;;;;;;4.19;87.05;101531.00;7393525;19;20074;-70
2023/01/04 05:11:14;;;;;;;6.57;4.55;;;;;;;4.22;86.96;101525.84;7392000;19;20086;-69
2023/01/04 05:13:43;;;;;;;7.60;5.85;;;;;;;4.18;86.88;101513.66;7392267;19;20087;-69
2023/01/04 05:16:11;;;;;;;6.72;5.13;;;;;;;4.22;86.69;101513.75;7398233;19;20014;-69
2023/01/04 05:18:40;;;;;;;9.63;5.38;;;;;;;4.24;87.00;101498.16;7397597;19;20081;-69
2023/01/04 05:21:08;;;;;;;7.25;4.95;;;;;;;4.28;86.94;101505.16;7397742;19;20091;-69
2023/01/04 05:23:37;;;;;;;6.40;5.35;;;;;;;4.29;86.69;101500.84;7399110;19;20086;-69
2023/01/04 05:26:05;;;;;;;8.18;4.88;;;;;;;4.31;86.67;101497.44;7400168;19;20078;-69
2023/01/04 05:28:34;;;;;;;5.82;4.50;;;;;;;4.30;86.46;101498.28;7400591;19;20070;-69
2023/01/04 05:31:02;;;;;;;6.57;5.40;;;;;;;4.33;86.64;101492.25;7400687;19;20094;-70
2023/01/04 05:33:33;;;;;;;9.35;5.05;;;;;;;4.32;86.51;101481.00;7398355;19;20477;-69
2023/01/04 05:36:05;;;;;;;6.57;5.25;;;;;;;4.35;86.47;101474.97;7399722;19;20159;-70
2023/01/04 05:38:33;;;;;;;6.32;4.70;;;;;;;4.36;86.21;101471.50;7399814;19;20031;-70
2023/01/04 05:41:02;;;;;;;6.72;5.35;;;;;;;4.38;86.33;101460.28;7396891;19;20018;-69
2023/01/04 05:43:28;;;;;;;7.57;4.65;;;;;;;4.39;86.35;101455.97;7398904;19;20084;-74
2023/01/04 05:45:58;;;;;;;6.65;5.43;;;;;;;4.39;86.07;101446.44;7399989;19;20017;-70
2023/01/04 05:48:29;;;;;;;5.00;4.38;;;;;;;4.40;86.19;101437.81;7397092;19;20090;-70
2023/01/04 05:50:57;;;;;;;8.48;4.55;;;;;;;4.42;86.21;101436.97;7399961;19;20015;-69
2023/01/04 05:53:26;;;;;;;9.55;5.25;;;;;;;4.42;85.87;101424.84;7398667;19;20082;-69
2023/01/04 05:55:54;;;;;;;7.43;5.75;;;;;;;4.44;86.28;101411.88;7399562;19;20015;-69
2023/01/04 05:58:23;;;;;;;8.82;5.03;;;;;;;4.46;85.99;101410.16;7399238;19;20091;-69
2023/01/04 06:00:51;;;;;;;6.88;4.47;;;;;;;4.48;85.75;101403.28;7396535;19;20033;-70
2023/01/04 06:03:20;;;;;;;5.88;4.00;;;;;;;4.49;85.85;101399.84;7398098;19;20612;-69
2023/01/04 06:05:54;;;;;;;7.80;4.40;;;;;;;4.52;85.64;101394.66;7396622;19;20081;-69
2023/01/04 06:08:22;;;;;;;9.20;3.90;;;;;;;4.55;85.68;101389.53;7398396;19;20545;-69
2023/01/04 06:10:54;;;;;;;8.43;4.40;;;;;;;4.56;85.76;101392.13;7398705;19;20026;-70
2023/01/04 06:13:23;;;;;;;6.53;4.22;;;;;;;4.58;85.48;101379.16;7396119;19;20018;-69
2023/01/04 06:15:51;;;;;;;6.57;4.10;;;;;;;4.60;85.60;101351.47;7398076;19;20023;-69
2023/01/04 06:18:20;;;;;;;5.45;4.05;;;;;;;4.64;85.26;101362.75;7398405;19;20029;-70
2023/01/04 06:20:48;;;;;;;7.35;4.43;;;;;;;4.67;85.37;101357.59;7395205;19;20078;-70
2023/01/04 06:23:19;;;;;;;5.75;4.05;;;;;;;4.72;85.21;101346.41;7396762;19;20022;-70
2023/01/04 06:25:48;;;;;;;8.32;3.65;;;;;;;4.76;84.84;101346.44;7397634;19;20027;-69
2023/01/04 06:28:16;;;;;;;6.10;4.10;;;;;;;4.80;84.94;101343.03;7397364;19;20427;-69
2023/01/04 06:30:45;;;;;;;6.15;3.78;;;;;;;4.86;84.48;101335.31;7396339;19;20022;-70
2023/01/04 06:33:13;;;;;;;4.88;3.45;;;;;;;4.91;84.49;101336.22;7397047;19;20077;-69
2023/01/04 06:35:41;;;;;;;4.00;2.95;;;;;;;4.97;84.59;101335.44;7396018;19;20022;-70
2023/01/04 06:38:10;;;;;;;8.20;3.50;;;;;;;5.01;84.27;101338.06;7398009;19;20417;-69
2023/01/04 06:40:41;;;;;;;7.57;3.63;;;;;;;5.06;84.08;101331.19;7397166;19;20104;-69
2023/01/04 06:43:09;;;;;;;8.73;3.83;;;;;;;5.11;84.02;101325.19;7398529;19;20035;-70
2023/01/04 06:45:38;;;;;;;5.50;3.25;;;;;;;5.15;83.99;101312.19;7397932;19;20074;-69
2023/01/04 06:48:07;;;;;;;7.28;4.07;;;;;;;5.20;83.84;101307.91;7397624;19;20032;-69
2023/01/04 06:50:36;;;;;;;4.38;3.75;;;;;;;5.25;83.20;101315.75;7397535;19;20070;-70
2023/01/04 06:53:04;;;;;;;5.35;3.50;;;;;;;5.30;83.38;101314.06;7397008;19;20091;-70
2023/01/04 06:55:33;;;;;;;5.35;3.58;;;;;;;5.34;83.26;101313.22;7395771;19;20010;-70
2023/01/04 06:58:04;;;;;;;5.80;3.25;;;;;;;5.38;83.39;101311.53;7397392;19;20085;-69
2023/01/04 07:00:32;;;;;;;6.13;3.60;;;;;;;5.41;82.91;101303.78;7396513;19;20478;-70
2023/01/04 07:03:01;;;;;;;9.95;3.30;;;;;;;5.42;82.84;101315.94;7396672;19;20027;-70
2023/01/04 07:05:30;;;;;;;5.65;3.72;;;;;;;5.46;83.11;101306.41;7397357;19;20040;-70
2023/01/04 07:08:01;;;;;;;5.78;3.40;;;;;;;5.48;83.32;101297.75;7395234;19;20035;-69
2023/01/04 07:10:30;;;;;;;6.50;3.20;;;;;;;5.47;83.35;101290.81;7396815;19;20027;-70
2023/01/04 07:12:59;;;;;;;5.72;3.60;;;;;;;5.52;83.04;101288.22;7396463;19;20085;-70
2023/01/04 07:15:30;;;;;;;3.78;2.88;;;;;;;5.53;83.34;101279.56;7396635;19;20018;-70
2023/01/04 07:17:58;;;;;;;7.57;3.38;;;;;;;5.54;83.06;101278.72;7396475;19;20444;-70
2023/01/04 07:20:27;;;;;;;6.57;3.67;;;;;;;5.55;83.49;101272.66;7395060;19;20078;-69
2023/01/04 07:22:55;;;;;;;7.10;3.60;;;;;;;5.56;84.00;101274.41;7395380;19;20115;-69
2023/01/04 07:25:24;;;;;;;5.28;3.50;;;;;;;5.55;83.86;101273.50;7396083;19;20408;-70
2023/01/04 07:27:53;;;;;;;5.10;3.53;;;;;;;5.55;84.30;101260.50;7396414;19;20545;-68
2023/01/04 07:30:23;;;;;;;4.38;3.38;;;;;;;5.53;84.74;101259.63;7396244;19;20403;-69
2023/01/04 07:32:55;;;;;;;5.22;4.13;;;;;;;5.55;86.70;101254.44;7395784;19;20474;-67
2023/01/04 07:35:24;;;;;;;8.77;4.07;;;;;;;5.56;87.46;101250.97;7396878;19;20022;-67
2023/01/04 07:37:53;;;;;;;9.57;4.00;;;;;;;5.67;88.32;101241.50;7395212;19;20534;-67
2023/01/04 07:40:21;;;;;;;8.48;3.67;;;;;;;5.78;89.41;101233.75;7394368;19;20011;-68
2023/01/04 07:42:58;;;;;;;5.68;3.65;;;;;;;5.90;88.46;101232.94;7395439;19;20115;-67
2023/01/04 07:45:27;;;;;;;5.57;3.40;;;;;;;5.95;88.44;101231.25;7396542;19;20014;-68
2023/01/04 07:47:59;;;;;;;6.43;3.70;;;;;;;6.01;88.08;101220.88;7395639;19;20031;-68
2023/01/04 07:50:28;;;;;;;5.32;3.63;;;;;;;6.01;88.43;101220.88;7396238;19;20085;-67
2023/01/04 07:52:56;;;;;;;5.88;3.80;;;;;;;6.05;88.94;101208.72;7395106;19;20019;-68
2023/01/04 07:55:25;;;;;;;4.88;3.55;;;;;;;6.06;87.56;101202.66;7394659;19;20018;-71
2023/01/04 07:57:54;;;;;;;6.30;3.65;;;;;;;6.00;87.76;101208.72;7395265;19;20502;-71
2023/01/04 08:00:23;;;;;;;8.05;3.88;;;;;;;5.92;87.95;101210.38;7393868;19;20032;-71
2023/01/04 08:02:52;;;;;;;4.90;3.63;;;;;;;5.84;88.12;101202.53;7395193;19;20015;-71
2023/01/04 08:05:24;;;;;;;5.88;4.20;;;;;;;5.76;88.20;101195.53;7395524;19;20033;-70
2023/01/04 08:07:52;;;;;;;5.40;3.92;;;;;;;5.73;88.76;101193.78;7395768;19;20029;-70
2023/01/04 08:10:21;;;;;;;4.88;3.50;;;;;;;5.69;88.98;101197.25;7394940;19;20031;-70
2023/01/04 08:12:49;;;;;;;7.22;4.32;;;;;;;5.65;89.24;101177.25;7394607;19;20074;-70
2023/01/04 08:15:18;;;;;;;7.80;4.10;;;;;;;5.61;90.10;101167.69;7394506;19;20514;-71
2023/01/04 08:17:53;;;;;;;6.50;4.40;;;;;;;5.58;90.48;101173.75;7394139;19;20010;-71
2023/01/04 08:20:24;;;;;;;11.48;4.82;;;;;;;5.53;90.46;101163.34;7392427;19;20482;-71
2023/01/04 08:22:53;;;;;;;8.55;5.10;;;;;;;5.51;91.20;101164.16;7392845;19;20035;-72
2023/01/04 08:25:21;;;;;;;10.38;5.15;;;;;;;5.50;91.11;101162.44;7394907;19;20372;-71
2023/01/04 08:27:50;;;;;;;6.75;4.68;;;;;;;5.50;91.28;101157.22;7395252;19;20070;-71
2023/01/04 08:30:18;;;;;;;7.30;4.82;;;;;;;5.49;91.85;101142.47;7393139;19;20078;-72
2023/01/04 08:32:47;;;;;;;10.32;5.65;;;;;;;5.49;91.44;101137.25;7393775;19;20086;-72
2023/01/04 08:35:16;;;;;;;9.80;6.28;;;;;;;5.48;92.16;101136.38;7394572;19;20024;-72
2023/01/04 08:37:47;;;;;;;9.27;5.53;;;;;;;5.51;91.97;101127.72;7394108;19;20085;-70
2023/01/04 08:40:15;;;;;;;7.90;5.32;;;;;;;5.51;92.19;101125.13;7393675;19;20035;-71
2023/01/04 08:42:44;;;;;;;12.23;6.22;;;;;;;5.53;91.92;101139.91;7393960;19;20031;-71
2023/01/04 08:45:13;;;;;;;8.60;6.13;;;;;;;5.54;92.24;101135.56;7393670;19;20380;-73
2023/01/04 08:47:47;;;;;;;8.35;6.28;;;;;;;5.55;92.81;101129.50;7391771;19;20079;-71
2023/01/04 08:50:19;;;;;;;7.78;5.90;;;;;;;5.58;92.67;101123.44;7396561;19;20022;-69
2023/01/04 08:52:50;;;;;;;8.20;6.40;;;;;;;5.58;93.60;101133.84;7398642;19;20025;-71
2023/01/04 08:55:18;;;;;;;7.25;6.13;;;;;;;5.59;93.30;101126.03;7401912;19;20022;-71
2023/01/04 08:57:47;;;;;;;11.20;7.25;;;;;;;5.58;94.11;101126.03;7398523;19;20511;-72
2023/01/04 09:00:20;;;;;;;9.30;6.70;;;;;;;5.56;93.94;101110.41;7398759;19;20026;-70
2023/01/04 09:02:48;;;;;;;11.93;6.05;;;;;;;5.54;94.72;101099.13;7401345;19;20035;-70
2023/01/04 09:05:17;;;;;;;10.30;6.60;;;;;;;5.54;94.52;101096.50;7401294;19;20035;-70
2023/01/04 09:07:45;;;;;;;11.25;6.22;;;;;;;5.53;95.44;101099.97;7400787;19;20019;-72
2023/01/04 09:10:16;;;;;;;9.82;6.43;;;;;;;5.53;95.62;101105.19;7400510;19;20493;-72
2023/01/04 09:12:46;;;;;;;9.52;6.15;;;;;;;5.53;95.98;101113.00;7401835;19;20022;-71
2023/01/04 09:15:16;;;;;;;9.63;6.32;;;;;;;5.52;95.49;101095.63;7401150;19;20018;-72
2023/01/04 09:17:44;;;;;;;10.82;5.80;;;;;;;5.52;95.96;101095.63;7400360;19;20047;-72
2023/01/04 09:20:13;;;;;;;8.45;5.65;;;;;;;5.54;95.59;101096.50;7398990;19;20018;-74
2023/01/04 09:22:41;;;;;;;8.52;5.78;;;;;;;5.54;95.76;101093.91;7397950;19;20039;-72
2023/01/04 09:25:11;;;;;;;9.63;5.90;;;;;;;5.56;95.67;101094.81;7400403;19;20082;-72
2023/01/04 09:27:42;;;;;;;10.32;6.50;;;;;;;5.58;95.33;101085.25;7400260;19;20074;-71
2023/01/04 09:30:12;;;;;;;9.32;4.97;;;;;;;5.61;94.94;101087.00;7401028;19;20014;-70
2023/01/04 09:32:40;;;;;;;8.52;4.82;;;;;;;5.62;94.76;101081.78;7400149;19;20015;-73
2023/01/04 09:35:09;;;;;;;7.53;5.22;;;;;;;5.65;94.38;101086.13;7400226;19;20082;-71
2023/01/04 09:37:38;;;;;;;8.65;5.47;;;;;;;5.67;94.19;101081.81;7400024;19;20074;-71
2023/01/04 09:40:08;;;;;;;5.88;4.55;;;;;;;5.70;94.23;101082.69;7400306;19;20094;-71
2023/01/04 09:42:45;;;;;;;7.90;5.05;;;;;;;5.71;95.01;101078.34;7397376;19;20078;-71
2023/01/04 09:45:20;;;;;;;5.10;4.60;;;;;;;5.70;95.66;101080.09;7399933;19;20022;-73
2023/01/04 09:47:54;;;;;;;7.20;4.78;;;;;;;5.67;96.17;101069.69;7400520;19;20035;-73
2023/01/04 09:50:26;;;;;;;11.38;5.57;;;;;;;5.64;96.17;101072.25;7397738;19;20022;-74
2023/01/04 09:53:04;;;;;;;6.22;5.30;;;;;;;5.62;96.85;101055.75;7397585;19;20035;-72
2023/01/04 09:55:37;;;;;;;7.72;5.35;;;;;;;5.61;96.85;101056.66;7399454;19;20490;-72
2023/01/04 09:58:18;;;;;;;8.20;4.45;;;;;;;5.60;97.16;101052.28;7400247;19;20023;-73
2023/01/04 10:00:50;;;;;;;7.25;5.03;;;;;;;5.59;97.55;101040.13;7399935;19;20090;-71
2023/01/04 10:03:24;;;;;;;6.10;4.78;;;;;;;5.59;97.28;101029.72;7396955;19;20474;-71
2023/01/04 10:05:56;;;;;;;5.45;4.15;;;;;;;5.62;97.45;101024.53;7399025;19;20014;-71
2023/01/04 10:08:25;;;;;;;4.88;3.95;;;;;;;5.65;97.04;101034.97;7399428;19;20022;-72
2023/01/04 10:11:06;;;;;;;6.25;4.22;;;;;;;5.68;96.83;101026.28;7399907;19;20046;-74
2023/01/04 10:13:53;;;;;;;7.45;4.22;;;;;;;5.71;96.26;101011.53;7397945;19;20022;-69
2023/01/04 10:16:35;;;;;;;6.47;3.78;;;;;;;5.76;95.99;101019.34;7398417;19;20027;-72
2023/01/04 10:19:17;;;;;;;5.30;3.95;;;;;;;5.82;95.64;101002.88;7399522;19;20086;-73
2023/01/04 10:22:18;;;;;;;5.05;3.58;;;;;;;5.87;95.49;100989.00;7397142;19;20014;-72
2023/01/04 10:25:00;;;;;;;6.80;3.83;;;;;;;5.92;94.89;100977.75;7396637;19;20103;-72
2023/01/04 10:27:38;;;;;;;4.80;3.13;;;;;;;5.96;94.56;100987.28;7399064;19;20018;-76
2023/01/04 10:30:23;;;;;;;5.40;3.22;;;;;;;5.98;94.29;100970.81;7396256;19;20011;-70
2023/01/04 10:32:58;;;;;;;4.30;3.13;;;;;;;6.01;93.78;100973.41;7398494;19;20024;-70
2023/01/04 10:35:28;;;;;;;4.75;2.95;;;;;;;6.09;93.43;100972.56;7398608;19;20070;-70
2023/01/04 10:38:00;;;;;;;5.55;3.10;;;;;;;6.17;94.08;100963.88;7399287;19;20015;-69
2023/01/04 10:40:30;;;;;;;4.18;3.17;;;;;;;6.26;92.97;100956.94;7398670;19;20021;-69
2023/01/04 10:43:04;;;;;;;5.55;2.95;;;;;;;6.31;91.71;100963.88;7395884;19;20078;-70
2023/01/04 10:45:45;;;;;;;5.77;3.20;;;;;;;6.38;91.70;100948.25;7395557;19;20031;-70
2023/01/04 10:48:20;;;;;;;5.45;2.63;;;;;;;6.42;91.04;100956.06;7398465;19;20043;-72
2023/01/04 10:50:56;;;;;;;2.45;2.25;;;;;;;6.46;91.06;100943.91;7398281;19;20546;-70
2023/01/04 10:53:28;;;;;;;6.38;2.67;;;;;;;6.50;91.00;100963.88;7397072;19;20116;-70
2023/01/04 10:56:04;;;;;;;5.05;2.55;;;;;;;6.53;90.49;100937.78;7397130;19;20021;-69
2023/01/04 10:58:39;;;;;;;4.03;2.55;;;;;;;6.58;89.71;100948.22;7397211;19;20035;-70
2023/01/04 11:01:15;;;;;;;4.57;2.50;;;;;;;6.63;89.73;100934.28;7395644;19;20094;-72
2023/01/04 11:03:50;;;;;;;3.38;2.80;;;;;;;6.69;89.70;100922.97;7396154;19;20081;-70
2023/01/04 11:06:23;;;;;;;3.20;2.30;;;;;;;6.72;88.78;100927.31;7397944;19;20025;-69
2023/01/04 11:08:58;;;;;;;3.70;2.22;;;;;;;6.77;88.65;100933.38;7395247;19;20035;-70
2023/01/04 11:11:31;;;;;;;3.42;2.20;;;;;;;6.79;88.16;100906.44;7394828;19;20486;-69
2023/01/04 11:14:00;;;;;;;4.37;2.10;;;;;;;6.84;87.88;100907.28;7395073;19;20078;-68
2023/01/04 11:16:33;;;;;;;3.05;2.00;;;;;;;6.89;88.03;100902.06;7398660;19;20366;-69
2023/01/04 11:19:03;;;;;;;3.92;1.75;;;;;;;6.92;87.93;100904.63;7395218;19;20018;-69
2023/01/04 11:21:43;;;;;;;2.78;1.52;;;;;;;6.95;87.66;100914.19;7394380;19;20044;-70
2023/01/04 11:24:12;;;;;;;1.80;1.45;;;;;;;6.97;87.67;100887.22;7395581;19;20080;-68
2023/01/04 11:26:45;;;;;;;3.95;2.03;;;;;;;6.99;87.26;100890.69;7397114;19;20022;-69
2023/01/04 11:29:31;;;;;;;4.03;2.15;;;;;;;7.00;87.30;100879.41;7395195;19;20078;-69
2023/01/04 11:32:06;;;;;;;2.30;1.67;;;;;;;7.04;86.47;100888.09;7396736;19;20090;-68
2023/01/04 11:34:56;;;;;;;5.35;2.40;;;;;;;7.06;86.35;100875.03;7394978;19;20038;-69
2023/01/04 11:37:32;;;;;;;2.75;1.50;;;;;;;7.08;86.27;100865.47;7395396;19;20087;-68
2023/01/04 11:40:27;;;;;;;3.10;1.83;;;;;;;7.11;85.99;100868.03;7397310;19;20014;-69
2023/01/04 11:43:13;;;;;;;2.28;1.38;;;;;;;7.11;85.36;100837.59;7395086;19;20022;-70
2023/01/04 11:45:42;;;;;;;2.15;1.63;;;;;;;7.15;85.68;100839.31;7396979;19;20022;-71
2023/01/04 11:48:16;;;;;;;1.83;1.40;;;;;;;7.21;85.84;100830.56;7395647;19;20027;-72
2023/01/04 11:50:50;;;;;;;2.28;1.70;;;;;;;7.22;85.91;100866.22;7394066;19;20510;-72
2023/01/04 11:53:27;;;;;;;2.30;1.80;;;;;;;7.21;86.64;100858.41;7394466;19;20047;-70
2023/01/04 11:56:14;;;;;;;1.70;1.60;;;;;;;7.19;87.35;100866.28;7396825;19;20014;-71
2023/01/04 11:58:44;;;;;;;2.17;1.67;;;;;;;7.12;87.94;100835.84;7396088;19;20027;-70
2023/01/04 12:01:24;;;;;;;3.03;1.60;;;;;;;7.09;88.77;100843.69;7396345;19;20015;-71
2023/01/04 12:03:56;;;;;;;3.55;1.90;;;;;;;7.05;89.30;100841.97;7396444;19;20014;-71
2023/01/04 12:06:34;;;;;;;4.13;1.90;;;;;;;6.97;89.37;100824.63;7396032;19;20014;-70
2023/01/04 12:09:02;;;;;;;2.20;1.70;;;;;;;6.99;89.76;100822.03;7395598;19;20015;-70
2023/01/04 12:11:33;;;;;;;2.25;1.50;;;;;;;6.97;89.96;100828.97;7395552;19;20514;-70
2023/01/04 12:14:02;;;;;;;1.90;1.70;;;;;;;6.94;90.91;100814.22;7393093;19;20015;-71
2023/01/04 12:16:46;;;;;;;2.30;1.80;;;;;;;6.94;91.02;100813.38;7394088;19;20494;-72
2023/01/04 12:19:19;;;;;;;2.47;2.00;;;;;;;6.93;90.88;100816.84;7395783;19;20074;-71
2023/01/04 12:21:51;;;;;;;3.35;2.00;;;;;;;6.92;91.64;100809.88;7393574;19;20031;-71
2023/01/04 12:24:22;;;;;;;4.00;2.08;;;;;;;6.91;91.66;100797.72;7390404;19;20513;-70
2023/01/04 12:26:51;;;;;;;2.35;1.90;;;;;;;6.88;92.10;100818.59;7394224;19;20010;-70
2023/01/04 12:29:58;;;;;;;4.15;2.30;;;;;;;6.86;92.42;100805.56;7392375;19;20006;-70
2023/01/04 12:32:45;;;;;;;4.80;2.38;;;;;;;6.85;92.06;100801.22;7390521;19;20040;-71
2023/01/04 12:35:46;;;;;;;2.80;2.10;;;;;;;6.84;92.09;100786.47;7391563;19;20038;-72
2023/01/04 12:38:52;;;;;;;4.00;2.60;;;;;;;6.85;91.83;100782.97;7393699;19;20011;-72